createdAt,value
2022-10-23T00:01:45.639Z,25.40
2022-10-23T00:04:19.619Z,23.20
2022-10-23T00:06:49.176Z,22.60
2022-10-23T00:09:21.111Z,17.20
2022-10-23T00:11:51.216Z,18.80
2022-10-23T00:14:22.269Z,24.60
2022-10-23T00:16:50.954Z,23.40
2022-10-23T00:19:19.129Z,21.00
2022-10-23T00:21:47.104Z,22.50
2022-10-23T00:24:15.169Z,23.20
2022-10-23T00:26:43.246Z,22.70
2022-10-23T00:29:11.811Z,20.60
2022-10-23T00:31:39.895Z,23.70
2022-10-23T00:34:09.009Z,23.20
2022-10-23T00:36:37.881Z,21.70
2022-10-23T00:39:06.566Z,25.30
2022-10-23T00:41:35.253Z,25.00
2022-10-23T00:44:05.678Z,22.90
2022-10-23T00:46:34.262Z,21.40
2022-10-23T00:49:03.624Z,23.50
2022-10-23T00:51:36.449Z,26.10
2022-10-23T00:56:57.370Z,23.70
2022-10-23T00:59:25.542Z,24.90
2022-10-23T01:01:53.853Z,22.60
2022-10-23T01:04:22.813Z,25.30
2022-10-23T01:07:38.192Z,22.80
2022-10-23T01:10:16.298Z,20.70
2022-10-23T01:12:53.899Z,24.40
2022-10-23T01:15:30.259Z,24.20
2022-10-23T01:18:12.240Z,23.00
2022-10-23T01:21:09.717Z,18.50
2022-10-23T01:23:46.594Z,20.40
2022-10-23T01:26:42.724Z,23.60
2022-10-23T01:29:37.114Z,24.50
2022-10-23T01:32:24.536Z,22.10
2022-10-23T01:35:12.245Z,23.50
2022-10-23T01:37:49.865Z,17.80
2022-10-23T01:40:27.765Z,22.00
2022-10-23T01:43:01.981Z,22.70
2022-10-23T01:45:50.944Z,21.70
2022-10-23T01:48:27.922Z,16.10
2022-10-23T01:50:59.377Z,23.30
2022-10-23T01:53:31.335Z,20.70
2022-10-23T01:56:03.093Z,18.30
2022-10-23T01:58:33.112Z,23.00
2022-10-23T02:01:05.656Z,20.80
2022-10-23T02:03:37.342Z,24.90
2022-10-23T02:06:05.829Z,17.40
2022-10-23T02:08:34.083Z,15.60
2022-10-23T02:11:15.689Z,22.60
2022-10-23T02:16:54.838Z,24.10
2022-10-23T02:19:42.137Z,25.30
2022-10-23T02:22:21.495Z,22.80
2022-10-23T02:24:54.687Z,24.10
2022-10-23T02:27:35.561Z,18.60
2022-10-23T02:30:09.570Z,22.60
2022-10-23T02:32:42.400Z,21.60
2022-10-23T02:35:13.602Z,23.60
2022-10-23T02:37:41.886Z,22.50
2022-10-23T02:40:11.795Z,20.10
2022-10-23T02:42:57.882Z,23.50
2022-10-23T02:45:44.386Z,22.30
2022-10-23T02:48:23.617Z,21.80
2022-10-23T02:50:54.659Z,22.20
2022-10-23T02:53:37.988Z,21.40
2022-10-23T02:56:24.905Z,23.80
2022-10-23T02:59:14.681Z,18.00
2022-10-23T03:01:51.677Z,21.70
2022-10-23T03:04:22.087Z,20.20
2022-10-23T03:06:51.796Z,19.90
2022-10-23T03:09:20.142Z,22.90
2022-10-23T03:11:48.144Z,22.80
2022-10-23T03:14:16.193Z,16.00
2022-10-23T03:16:44.183Z,21.90
2022-10-23T03:21:45.651Z,19.50
2022-10-23T03:24:13.621Z,22.60
2022-10-23T03:26:43.841Z,22.10
2022-10-23T03:29:12.016Z,20.30
2022-10-23T03:31:45.821Z,20.70
2022-10-23T03:34:15.326Z,19.70
2022-10-23T03:36:43.909Z,21.10
2022-10-23T03:39:12.185Z,16.70
2022-10-23T03:41:40.180Z,17.20
2022-10-23T03:44:09.047Z,18.70
2022-10-23T03:46:37.324Z,18.20
2022-10-23T03:49:06.008Z,19.30
2022-10-23T03:51:35.000Z,19.50
2022-10-23T03:54:03.071Z,18.30
2022-10-23T03:56:31.760Z,17.00
2022-10-23T03:59:00.956Z,17.60
2022-10-23T04:01:29.920Z,18.60
2022-10-23T04:03:58.214Z,17.80
2022-10-23T04:06:26.806Z,17.90
2022-10-23T04:08:58.154Z,16.40
2022-10-23T04:11:26.431Z,18.10
2022-10-23T04:13:54.710Z,17.20
2022-10-23T04:16:24.599Z,18.50
2022-10-23T04:18:53.205Z,14.90
2022-10-23T04:21:21.481Z,19.00
2022-10-23T04:23:49.555Z,17.10
2022-10-23T04:26:19.265Z,19.20
2022-10-23T04:28:47.436Z,17.50
2022-10-23T04:31:15.711Z,15.40
2022-10-23T04:33:44.605Z,13.30
2022-10-23T04:36:26.805Z,16.80
2022-10-23T04:38:54.981Z,17.10
2022-10-23T04:41:23.053Z,17.80
2022-10-23T04:43:51.122Z,16.00
2022-10-23T04:46:19.295Z,17.40
2022-10-23T04:48:49.210Z,17.40
2022-10-23T04:51:43.291Z,16.90
2022-10-23T04:54:25.800Z,17.60
2022-10-23T04:57:12.816Z,17.90
2022-10-23T04:59:55.632Z,16.40
2022-10-23T05:02:24.627Z,17.10
2022-10-23T05:04:53.824Z,18.10
2022-10-23T05:07:37.870Z,16.20
2022-10-23T05:10:27.342Z,16.80
2022-10-23T05:13:13.642Z,16.30
2022-10-23T05:18:21.253Z,17.20
2022-10-23T05:20:52.395Z,18.00
2022-10-23T05:23:25.183Z,16.90
2022-10-23T05:26:00.621Z,17.30
2022-10-23T05:28:28.590Z,17.90
2022-10-23T05:31:00.246Z,18.20
2022-10-23T05:33:30.464Z,17.20
2022-10-23T05:35:59.053Z,15.70
2022-10-23T05:38:31.832Z,18.10
2022-10-23T05:41:04.307Z,16.90
2022-10-23T05:43:32.891Z,17.30
2022-10-23T05:46:08.234Z,17.40
2022-10-23T05:48:51.706Z,16.50
2022-10-23T05:51:28.951Z,16.90
2022-10-23T05:54:08.277Z,18.00
2022-10-23T05:56:44.550Z,17.50
2022-10-23T05:59:24.908Z,17.40
2022-10-23T06:02:14.958Z,16.40
2022-10-23T06:04:59.658Z,16.40
2022-10-23T06:07:32.306Z,16.70
2022-10-23T06:10:06.412Z,15.70
2022-10-23T06:15:06.102Z,16.20
2022-10-23T06:17:52.678Z,15.90
2022-10-23T06:20:25.350Z,16.10
2022-10-23T06:23:04.789Z,15.30
2022-10-23T06:25:59.900Z,15.80
2022-10-23T06:28:34.628Z,18.50
2022-10-23T06:31:11.177Z,16.50
2022-10-23T06:33:39.168Z,14.80
2022-10-23T06:36:10.802Z,16.60
2022-10-23T06:41:18.858Z,15.80
2022-10-23T06:43:50.199Z,17.30
2022-10-23T06:46:36.081Z,16.00
2022-10-23T06:49:27.499Z,14.20
2022-10-23T06:51:59.157Z,15.20
2022-10-23T06:54:27.228Z,16.50
2022-10-23T06:57:12.808Z,17.20
2022-10-23T06:59:47.331Z,16.70
2022-10-23T07:02:17.247Z,14.90
2022-10-23T07:04:45.727Z,16.00
2022-10-23T07:07:17.689Z,14.70
2022-10-23T07:09:48.429Z,15.90
2022-10-23T07:12:16.495Z,14.90
2022-10-23T07:14:48.559Z,14.70
2022-10-23T07:17:17.449Z,14.60
2022-10-23T07:19:47.147Z,13.20
2022-10-23T07:22:16.561Z,12.80
2022-10-23T07:24:56.920Z,14.10
2022-10-23T07:27:37.056Z,15.10
2022-10-23T07:30:05.886Z,13.40
2022-10-23T07:32:41.820Z,13.50
2022-10-23T07:37:51.377Z,12.00
2022-10-23T07:40:20.986Z,13.50
2022-10-23T07:42:49.772Z,13.50
2022-10-23T07:45:19.379Z,11.40
2022-10-23T07:47:52.230Z,12.10
2022-10-23T07:50:21.153Z,12.80
2022-10-23T07:52:49.329Z,12.60
2022-10-23T07:55:19.038Z,13.30
2022-10-23T07:57:53.764Z,13.20
2022-10-23T08:00:40.649Z,12.90
2022-10-23T08:03:13.152Z,11.90
2022-10-23T08:05:41.223Z,14.20
2022-10-23T08:08:10.216Z,15.30
2022-10-23T08:10:41.793Z,13.80
2022-10-23T08:13:14.261Z,13.10
2022-10-23T08:16:04.230Z,14.70
2022-10-23T08:18:51.570Z,13.20
2022-10-23T08:21:20.545Z,13.50
2022-10-23T08:23:50.257Z,14.30
2022-10-23T08:26:18.837Z,12.40
2022-10-23T08:28:47.012Z,12.50
2022-10-23T08:31:17.642Z,12.40
2022-10-23T08:33:58.218Z,11.20
2022-10-23T08:36:28.611Z,11.40
2022-10-23T08:38:58.478Z,11.90
2022-10-23T08:41:32.547Z,12.50
2022-10-23T08:44:25.208Z,11.20
2022-10-23T08:47:07.817Z,11.00
2022-10-23T08:50:32.722Z,11.50
2022-10-23T08:53:00.692Z,11.20
2022-10-23T08:55:38.693Z,12.10
2022-10-23T08:58:41.002Z,11.10
2022-10-23T09:01:46.815Z,11.30
2022-10-23T09:04:15.818Z,9.80
2022-10-23T09:07:21.677Z,10.60
2022-10-23T09:09:52.613Z,10.50
2022-10-23T09:12:26.112Z,10.30
2022-10-23T09:15:02.561Z,8.40
2022-10-23T09:17:41.343Z,8.90
2022-10-23T09:20:34.257Z,9.30
2022-10-23T09:23:07.958Z,9.60
2022-10-23T09:25:39.308Z,8.20
2022-10-23T09:28:16.389Z,10.10
2022-10-23T09:30:44.461Z,8.70
2022-10-23T09:33:22.260Z,8.80
2022-10-23T09:35:54.737Z,8.30
2022-10-23T09:38:45.746Z,9.70
2022-10-23T09:41:19.555Z,9.70
2022-10-23T09:43:48.268Z,7.60
2022-10-23T09:46:20.491Z,8.60
2022-10-23T09:48:59.883Z,7.90
2022-10-23T09:51:30.594Z,8.10
2022-10-23T09:54:00.797Z,7.00
2022-10-23T09:56:41.018Z,7.40
2022-10-23T09:59:12.212Z,6.60
2022-10-23T10:01:49.923Z,6.30
2022-10-23T10:04:41.311Z,6.00
2022-10-23T10:07:20.637Z,6.70
2022-10-23T10:09:49.635Z,5.90
2022-10-23T10:12:20.374Z,6.30
2022-10-23T10:14:57.149Z,5.50
2022-10-23T10:17:50.206Z,5.00
2022-10-23T10:20:24.322Z,4.70
2022-10-23T10:23:27.845Z,4.30
2022-10-23T10:26:02.957Z,4.30
2022-10-23T10:28:59.498Z,5.20
2022-10-23T10:31:49.442Z,5.00
2022-10-23T10:34:30.249Z,4.90
2022-10-23T10:37:11.531Z,4.20
2022-10-23T10:39:54.963Z,3.90
2022-10-23T10:42:50.889Z,3.80
2022-10-23T10:45:27.457Z,4.60
2022-10-23T10:48:27.785Z,4.00
2022-10-23T10:51:40.196Z,3.70
2022-10-23T10:54:43.288Z,3.80
2022-10-23T10:57:33.070Z,3.50
2022-10-23T11:00:22.234Z,3.70
2022-10-23T11:02:57.887Z,4.80
2022-10-23T11:05:33.508Z,3.90
2022-10-23T11:08:25.257Z,3.50
2022-10-23T11:10:58.757Z,3.70
2022-10-23T11:13:33.791Z,4.10
2022-10-23T11:16:09.135Z,3.90
2022-10-23T11:18:40.570Z,3.50
2022-10-23T11:21:17.565Z,3.70
2022-10-23T11:24:03.195Z,3.20
2022-10-23T11:26:52.106Z,3.40
2022-10-23T11:29:38.203Z,3.20
2022-10-23T11:32:24.705Z,3.00
2022-10-23T11:35:03.025Z,3.10
2022-10-23T11:37:31.394Z,2.80
2022-10-23T11:40:08.580Z,3.10
2022-10-23T11:42:39.826Z,3.20
2022-10-23T11:45:37.899Z,3.10
2022-10-23T11:48:15.086Z,2.20
2022-10-23T11:50:46.331Z,2.90
2022-10-23T11:53:46.554Z,3.20
2022-10-23T11:56:14.830Z,2.90
2022-10-23T11:58:55.425Z,2.90
2022-10-23T12:01:29.445Z,2.70
2022-10-23T12:03:57.580Z,2.80
2022-10-23T12:06:43.367Z,2.50
2022-10-23T12:09:29.565Z,2.60
2022-10-23T12:12:03.572Z,2.70
2022-10-23T12:14:36.763Z,2.80
2022-10-23T12:17:30.510Z,3.30
2022-10-23T12:20:12.905Z,3.30
2022-10-23T12:23:02.419Z,2.40
2022-10-23T12:25:58.343Z,2.90
2022-10-23T12:28:57.444Z,3.00
2022-10-23T12:32:03.812Z,3.30
2022-10-23T12:34:50.314Z,3.10
2022-10-23T12:37:54.840Z,2.90
2022-10-23T12:40:29.981Z,2.80
2022-10-23T12:43:01.127Z,3.90
2022-10-23T12:45:40.252Z,3.10
2022-10-23T12:48:19.803Z,3.50
2022-10-23T12:50:54.723Z,2.90
2022-10-23T12:53:24.293Z,3.00
2022-10-23T12:56:05.202Z,3.00
2022-10-23T12:58:35.363Z,3.30
2022-10-23T13:01:07.404Z,3.30
2022-10-23T13:03:36.213Z,3.20
2022-10-23T13:06:06.942Z,3.30
2022-10-23T13:08:46.140Z,2.90
2022-10-23T13:11:46.570Z,3.00
2022-10-23T13:14:31.055Z,3.00
2022-10-23T13:17:11.083Z,3.10
2022-10-23T13:19:39.456Z,2.70
2022-10-23T13:22:21.823Z,3.10
2022-10-23T13:24:49.937Z,3.00
2022-10-23T13:27:30.500Z,3.30
2022-10-23T13:29:58.576Z,3.40
2022-10-23T13:32:30.534Z,3.30
2022-10-23T13:35:20.379Z,3.60
2022-10-23T13:37:51.165Z,3.50
2022-10-23T13:40:28.132Z,3.20
2022-10-23T13:42:57.430Z,3.40
2022-10-23T13:45:26.943Z,3.30
2022-10-23T13:47:54.950Z,3.40
2022-10-23T13:50:23.077Z,3.30
2022-10-23T13:52:51.150Z,2.80
2022-10-23T13:55:24.340Z,3.10
2022-10-23T13:57:52.411Z,2.70
2022-10-23T14:00:20.687Z,2.80
2022-10-23T14:02:48.692Z,2.60
2022-10-23T14:05:16.832Z,2.80
2022-10-23T14:07:45.054Z,3.00
2022-10-23T14:10:13.386Z,2.30
2022-10-23T14:12:43.673Z,2.70
2022-10-23T14:15:12.395Z,2.60
2022-10-23T14:17:40.873Z,2.50
2022-10-23T14:20:09.761Z,2.50
2022-10-23T14:22:37.836Z,2.80
2022-10-23T14:25:07.135Z,2.70
2022-10-23T14:27:35.207Z,3.20
2022-10-23T14:30:04.167Z,3.10
2022-10-23T14:32:32.269Z,2.80
2022-10-23T14:35:03.926Z,3.20
2022-10-23T14:40:00.581Z,2.90
2022-10-23T14:42:34.214Z,3.40
2022-10-23T14:45:03.035Z,3.20
2022-10-23T14:47:31.347Z,3.40
2022-10-23T14:49:59.628Z,3.50
2022-10-23T14:52:28.209Z,3.00
2022-10-23T14:54:56.282Z,3.10
2022-10-23T14:57:24.350Z,4.30
2022-10-23T14:59:52.319Z,4.10
2022-10-23T15:02:20.293Z,3.90
2022-10-23T15:04:48.361Z,3.90
2022-10-23T15:07:16.739Z,4.10
2022-10-23T15:09:44.811Z,3.60
2022-10-23T15:12:12.881Z,4.20
2022-10-23T15:14:40.951Z,3.70
2022-10-23T15:17:14.551Z,4.80
2022-10-23T15:19:44.059Z,6.40
2022-10-23T15:22:12.127Z,6.20
2022-10-23T15:24:40.199Z,6.50
2022-10-23T15:29:41.360Z,6.80
2022-10-23T15:32:10.608Z,7.80
2022-10-23T15:34:39.859Z,7.10
2022-10-23T15:37:07.932Z,8.30
2022-10-23T15:39:36.308Z,9.10
2022-10-23T15:42:05.930Z,9.70
2022-10-23T15:44:34.794Z,9.50
2022-10-23T15:47:02.885Z,10.80
2022-10-23T15:49:30.949Z,9.90
2022-10-23T15:56:18.195Z,11.40
2022-10-23T15:58:46.267Z,12.20
2022-10-23T16:01:14.479Z,26.30
2022-10-23T16:03:42.717Z,37.70
2022-10-23T16:06:13.521Z,52.30
2022-10-23T16:08:44.003Z,44.90
2022-10-23T16:11:27.615Z,121.30
2022-10-23T16:13:57.428Z,34.50
2022-10-23T16:16:26.014Z,26.60
2022-10-23T16:18:54.490Z,20.80
2022-10-23T16:21:25.296Z,24.60
2022-10-23T16:23:55.550Z,35.60
2022-10-23T16:26:24.235Z,43.60
2022-10-23T16:28:57.734Z,53.60
2022-10-23T16:31:26.610Z,38.50
2022-10-23T16:36:26.044Z,36.60
2022-10-23T16:39:15.008Z,44.00
2022-10-23T16:42:01.304Z,40.20
2022-10-23T16:44:38.693Z,29.50
2022-10-23T16:47:07.685Z,46.40
2022-10-23T16:49:35.757Z,55.80
2022-10-23T16:52:04.036Z,41.50
2022-10-23T16:54:32.105Z,43.10
2022-10-23T16:57:00.175Z,37.90
2022-10-23T16:59:28.351Z,51.80
2022-10-23T17:01:56.523Z,45.80
2022-10-23T17:04:24.595Z,34.00
2022-10-23T17:06:52.672Z,33.80
2022-10-23T17:09:20.741Z,40.70
2022-10-23T17:11:51.168Z,38.00
2022-10-23T17:14:21.214Z,40.00
2022-10-23T17:16:52.221Z,41.10
2022-10-23T17:19:43.849Z,38.50
2022-10-23T17:22:13.526Z,35.20
2022-10-23T17:24:44.229Z,33.70
2022-10-23T17:27:14.510Z,39.60
2022-10-23T17:29:42.480Z,36.10
2022-10-23T17:32:10.642Z,31.90
2022-10-23T17:34:38.826Z,27.10
2022-10-23T17:37:08.229Z,33.80
2022-10-23T17:39:36.199Z,49.80
2022-10-23T17:42:04.456Z,62.10
2022-10-23T17:44:32.545Z,42.20
2022-10-23T17:47:00.617Z,39.30
2022-10-23T17:49:28.688Z,35.40
2022-10-23T17:51:57.856Z,31.20
2022-10-23T17:54:27.052Z,28.00
2022-10-23T17:56:56.286Z,25.60
2022-10-23T17:59:24.352Z,25.30
2022-10-23T18:01:52.596Z,25.70
2022-10-23T18:04:21.625Z,54.90
2022-10-23T18:06:53.014Z,36.30
2022-10-23T18:09:22.812Z,31.30
2022-10-23T18:11:51.877Z,28.20
2022-10-23T18:14:21.077Z,37.80
2022-10-23T18:16:50.976Z,32.20
2022-10-23T18:19:19.461Z,34.90
2022-10-23T18:21:48.160Z,25.90
2022-10-23T18:24:17.048Z,27.30
2022-10-23T18:26:46.249Z,23.90
2022-10-23T18:29:17.649Z,30.70
2022-10-23T18:34:24.488Z,22.00
2022-10-23T18:36:54.708Z,21.60
2022-10-23T18:39:25.648Z,24.50
2022-10-23T18:41:56.899Z,25.70
2022-10-23T18:44:27.528Z,30.20
2022-10-23T18:46:57.424Z,25.90
2022-10-23T18:49:25.714Z,23.10
2022-10-23T18:51:53.815Z,24.60
2022-10-23T18:54:22.370Z,24.60
2022-10-23T18:56:50.549Z,25.00
2022-10-23T18:59:21.140Z,24.00
2022-10-23T19:01:50.149Z,22.30
2022-10-23T19:04:18.854Z,22.50
2022-10-23T19:06:49.382Z,21.10
2022-10-23T19:09:17.813Z,21.80
2022-10-23T19:11:46.242Z,21.00
2022-10-23T19:14:14.920Z,22.30
2022-10-23T19:17:05.225Z,22.40
2022-10-23T19:19:42.097Z,21.40
2022-10-23T19:22:12.426Z,22.30
2022-10-23T19:24:45.920Z,21.90
2022-10-23T19:27:14.195Z,21.50
2022-10-23T19:29:45.385Z,23.80
2022-10-23T19:32:14.118Z,23.50
2022-10-23T19:34:42.097Z,22.00
2022-10-23T19:37:10.412Z,21.90
2022-10-23T19:39:38.749Z,20.90
2022-10-23T19:42:08.768Z,21.90
2022-10-23T19:44:36.737Z,22.40
2022-10-23T19:47:04.808Z,21.70
2022-10-23T19:49:32.779Z,21.00
2022-10-23T19:52:00.745Z,21.40
2022-10-23T19:54:28.817Z,22.40
2022-10-23T19:56:57.400Z,21.90
2022-10-23T19:59:25.471Z,21.90
2022-10-23T20:01:53.524Z,22.60
2022-10-23T20:04:21.715Z,25.00
2022-10-23T20:06:49.788Z,24.00
2022-10-23T20:09:17.756Z,22.10
2022-10-23T20:11:45.931Z,22.80
2022-10-23T20:14:13.981Z,23.30
2022-10-23T20:16:45.050Z,23.40
2022-10-23T20:21:49.700Z,20.30
2022-10-23T20:24:19.940Z,19.40
2022-10-23T20:26:51.152Z,19.60
2022-10-23T20:29:19.736Z,19.30
2022-10-23T20:31:47.812Z,17.80
2022-10-23T20:34:15.881Z,17.20
2022-10-23T20:36:46.954Z,18.60
2022-10-23T20:39:21.647Z,18.90
2022-10-23T20:41:49.823Z,21.00
2022-10-23T20:44:18.912Z,20.90
2022-10-23T20:46:47.729Z,19.10
2022-10-23T20:49:16.903Z,20.20
2022-10-23T20:51:45.785Z,20.30
2022-10-23T20:54:13.762Z,18.60
2022-10-23T20:56:42.547Z,19.60
2022-10-23T20:59:15.638Z,16.90
2022-10-23T21:01:50.187Z,19.00
2022-10-23T21:04:20.381Z,19.20
2022-10-23T21:07:10.336Z,23.70
2022-10-23T21:09:40.268Z,21.30
2022-10-23T21:12:09.304Z,19.60
2022-10-23T21:14:37.554Z,17.20
2022-10-23T21:17:05.929Z,16.20
2022-10-23T21:19:34.208Z,16.70
2022-10-23T21:22:02.276Z,15.90
2022-10-23T21:24:30.347Z,16.70
2022-10-23T21:26:58.419Z,17.10
2022-10-23T21:29:26.491Z,17.20
2022-10-23T21:31:56.916Z,14.90
2022-10-23T21:34:26.524Z,15.10
2022-10-23T21:39:44.484Z,12.90
2022-10-23T21:42:14.193Z,12.80
2022-10-23T21:44:42.464Z,12.60
2022-10-23T21:47:10.535Z,13.30
2022-10-23T21:49:38.606Z,13.50
2022-10-23T21:52:06.988Z,13.30
2022-10-23T21:54:35.060Z,12.70
2022-10-23T21:57:03.639Z,12.80
2022-10-23T21:59:35.587Z,12.70
2022-10-23T22:02:04.997Z,12.90
2022-10-23T22:04:33.180Z,12.60
2022-10-23T22:07:02.935Z,12.90
2022-10-23T22:09:32.700Z,13.90
2022-10-23T22:12:01.285Z,13.20
2022-10-23T22:14:29.464Z,11.80
2022-10-23T22:16:57.532Z,12.20
2022-10-23T22:19:25.907Z,11.40
2022-10-23T22:21:54.289Z,11.80
2022-10-23T22:24:22.255Z,11.40
2022-10-23T22:26:54.320Z,10.80
2022-10-23T22:29:25.770Z,12.00
2022-10-23T22:31:53.954Z,10.80
2022-10-23T22:34:47.793Z,11.80
2022-10-23T22:37:13.335Z,10.30
2022-10-23T22:39:41.710Z,10.40
2022-10-23T22:42:10.064Z,10.20
2022-10-23T22:44:38.059Z,11.00
2022-10-23T22:47:06.538Z,10.20
2022-10-23T22:49:34.814Z,9.90
2022-10-23T22:52:02.785Z,9.50
2022-10-23T22:54:31.617Z,11.70
2022-10-23T22:56:59.866Z,9.20
2022-10-23T22:59:28.023Z,9.30
2022-10-23T23:01:56.301Z,10.10
2022-10-23T23:04:39.704Z,11.00
2022-10-23T23:07:11.070Z,10.00
2022-10-23T23:09:44.890Z,9.40
2022-10-23T23:12:14.352Z,9.80
2022-10-23T23:14:43.384Z,10.40
2022-10-23T23:17:12.065Z,9.70
2022-10-23T23:19:40.136Z,10.00
2022-10-23T23:22:08.310Z,10.40
2022-10-23T23:24:36.390Z,9.70
2022-10-23T23:27:04.455Z,9.80
2022-10-23T23:29:32.525Z,9.40
2022-10-23T23:32:00.596Z,9.80
2022-10-23T23:34:29.002Z,9.20
2022-10-23T23:36:57.046Z,8.90
2022-10-23T23:39:26.347Z,8.80
2022-10-23T23:41:54.520Z,9.30
2022-10-23T23:44:22.591Z,8.50
2022-10-23T23:46:50.561Z,9.00
2022-10-23T23:49:18.632Z,8.10
2022-10-23T23:51:46.907Z,8.70
2022-10-23T23:54:14.983Z,8.60
2022-10-23T23:56:43.051Z,9.50
2022-10-23T23:59:11.121Z,8.70
